sensor_id;sensor_type;location;lat;lon;timestamp;P1;durP1;ratioP1;P2;durP2;ratioP2
1837;SDS011;918;50.796;6.772;2023-06-10T00:02:25;11.03;;;10.23;;
1837;SDS011;918;50.796;6.772;2023-06-10T00:04:51;10.17;;;9.47;;
1837;SDS011;918;50.796;6.772;2023-06-10T00:07:17;11.03;;;10.23;;
1837;SDS011;918;50.796;6.772;2023-06-10T00:09:43;10.87;;;10.07;;
1837;SDS011;918;50.796;6.772;2023-06-10T00:12:08;10.37;;;9.67;;
1837;SDS011;918;50.796;6.772;2023-06-10T00:14:37;10.57;;;9.87;;
1837;SDS011;918;50.796;6.772;2023-06-10T00:17:04;11.13;;;10.43;;
1837;SDS011;918;50.796;6.772;2023-06-10T00:19:29;10.97;;;10.27;;
1837;SDS011;918;50.796;6.772;2023-06-10T00:21:55;11.60;;;10.90;;
1837;SDS011;918;50.796;6.772;2023-06-10T00:24:20;11.00;;;10.17;;
1837;SDS011;918;50.796;6.772;2023-06-10T00:26:46;10.93;;;10.33;;
1837;SDS011;918;50.796;6.772;2023-06-10T00:29:11;11.43;;;10.33;;
1837;SDS011;918;50.796;6.772;2023-06-10T00:31:37;11.33;;;10.63;;
1837;SDS011;918;50.796;6.772;2023-06-10T00:34:02;12.37;;;11.57;;
1837;SDS011;918;50.796;6.772;2023-06-10T00:36:28;12.43;;;11.53;;
1837;SDS011;918;50.796;6.772;2023-06-10T00:38:53;12.10;;;11.30;;
1837;SDS011;918;50.796;6.772;2023-06-10T00:41:19;12.80;;;12.00;;
1837;SDS011;918;50.796;6.772;2023-06-10T00:43:44;12.37;;;11.60;;
1837;SDS011;918;50.796;6.772;2023-06-10T00:46:10;10.27;;;9.67;;
1837;SDS011;918;50.796;6.772;2023-06-10T00:48:37;12.00;;;11.20;;
1837;SDS011;918;50.796;6.772;2023-06-10T00:51:03;11.87;;;11.10;;
1837;SDS011;918;50.796;6.772;2023-06-10T00:53:30;10.90;;;10.10;;
1837;SDS011;918;50.796;6.772;2023-06-10T00:55:55;11.83;;;11.13;;
1837;SDS011;918;50.796;6.772;2023-06-10T00:58:21;11.07;;;10.33;;
1837;SDS011;918;50.796;6.772;2023-06-10T01:00:46;11.20;;;10.40;;
1837;SDS011;918;50.796;6.772;2023-06-10T01:03:11;12.50;;;11.60;;
1837;SDS011;918;50.796;6.772;2023-06-10T01:05:37;11.43;;;10.40;;
1837;SDS011;918;50.796;6.772;2023-06-10T01:08:07;10.67;;;10.07;;
1837;SDS011;918;50.796;6.772;2023-06-10T01:10:38;11.90;;;11.03;;
1837;SDS011;918;50.796;6.772;2023-06-10T01:13:06;11.80;;;11.03;;
1837;SDS011;918;50.796;6.772;2023-06-10T01:15:33;11.00;;;10.20;;
1837;SDS011;918;50.796;6.772;2023-06-10T01:18:03;12.93;;;12.03;;
1837;SDS011;918;50.796;6.772;2023-06-10T01:20:31;13.07;;;12.17;;
1837;SDS011;918;50.796;6.772;2023-06-10T01:22:57;12.20;;;11.40;;
1837;SDS011;918;50.796;6.772;2023-06-10T01:25:23;11.90;;;11.10;;
1837;SDS011;918;50.796;6.772;2023-06-10T01:33:28;11.87;;;11.07;;
1837;SDS011;918;50.796;6.772;2023-06-10T01:35:56;11.47;;;10.67;;
1837;SDS011;918;50.796;6.772;2023-06-10T01:38:23;13.47;;;12.57;;
1837;SDS011;918;50.796;6.772;2023-06-10T01:40:50;14.30;;;13.20;;
1837;SDS011;918;50.796;6.772;2023-06-10T01:43:17;13.23;;;12.37;;
1837;SDS011;918;50.796;6.772;2023-06-10T01:45:44;13.17;;;12.23;;
1837;SDS011;918;50.796;6.772;2023-06-10T01:48:10;11.87;;;11.13;;
1837;SDS011;918;50.796;6.772;2023-06-10T01:50:35;12.00;;;11.20;;
1837;SDS011;918;50.796;6.772;2023-06-10T01:53:01;12.57;;;11.77;;
1837;SDS011;918;50.796;6.772;2023-06-10T01:55:26;12.10;;;11.40;;
1837;SDS011;918;50.796;6.772;2023-06-10T01:57:51;12.87;;;11.57;;
1837;SDS011;918;50.796;6.772;2023-06-10T02:00:16;12.40;;;11.53;;
1837;SDS011;918;50.796;6.772;2023-06-10T02:02:42;12.73;;;11.83;;
1837;SDS011;918;50.796;6.772;2023-06-10T02:05:07;11.77;;;10.97;;
1837;SDS011;918;50.796;6.772;2023-06-10T02:07:32;13.33;;;12.43;;
1837;SDS011;918;50.796;6.772;2023-06-10T02:09:58;14.33;;;13.43;;
1837;SDS011;918;50.796;6.772;2023-06-10T02:12:23;13.40;;;12.40;;
1837;SDS011;918;50.796;6.772;2023-06-10T02:14:48;13.27;;;12.30;;
1837;SDS011;918;50.796;6.772;2023-06-10T02:17:13;13.53;;;12.60;;
1837;SDS011;918;50.796;6.772;2023-06-10T02:19:39;14.10;;;13.10;;
1837;SDS011;918;50.796;6.772;2023-06-10T02:22:07;12.93;;;12.03;;
1837;SDS011;918;50.796;6.772;2023-06-10T02:24:33;13.57;;;12.60;;
1837;SDS011;918;50.796;6.772;2023-06-10T02:26:58;13.40;;;12.30;;
1837;SDS011;918;50.796;6.772;2023-06-10T02:29:25;13.43;;;12.53;;
1837;SDS011;918;50.796;6.772;2023-06-10T02:31:50;13.17;;;12.27;;
1837;SDS011;918;50.796;6.772;2023-06-10T02:34:17;14.87;;;13.87;;
1837;SDS011;918;50.796;6.772;2023-06-10T02:36:43;12.77;;;11.77;;
1837;SDS011;918;50.796;6.772;2023-06-10T02:39:09;13.23;;;12.23;;
1837;SDS011;918;50.796;6.772;2023-06-10T02:41:34;13.07;;;12.10;;
1837;SDS011;918;50.796;6.772;2023-06-10T02:43:59;12.90;;;11.97;;
1837;SDS011;918;50.796;6.772;2023-06-10T02:46:25;12.50;;;11.60;;
1837;SDS011;918;50.796;6.772;2023-06-10T02:48:50;12.67;;;11.67;;
1837;SDS011;918;50.796;6.772;2023-06-10T02:51:16;13.30;;;12.40;;
1837;SDS011;918;50.796;6.772;2023-06-10T02:53:42;13.67;;;12.47;;
1837;SDS011;918;50.796;6.772;2023-06-10T02:56:08;12.93;;;12.03;;
1837;SDS011;918;50.796;6.772;2023-06-10T02:58:33;12.83;;;11.90;;
1837;SDS011;918;50.796;6.772;2023-06-10T03:00:58;12.40;;;11.60;;
1837;SDS011;918;50.796;6.772;2023-06-10T03:03:23;12.60;;;11.80;;
1837;SDS011;918;50.796;6.772;2023-06-10T03:05:50;13.27;;;12.30;;
1837;SDS011;918;50.796;6.772;2023-06-10T03:08:15;13.87;;;12.87;;
1837;SDS011;918;50.796;6.772;2023-06-10T03:10:41;12.87;;;11.97;;
1837;SDS011;918;50.796;6.772;2023-06-10T03:13:06;14.03;;;13.13;;
1837;SDS011;918;50.796;6.772;2023-06-10T03:15:31;13.10;;;12.30;;
1837;SDS011;918;50.796;6.772;2023-06-10T03:17:59;14.03;;;12.90;;
1837;SDS011;918;50.796;6.772;2023-06-10T03:20:25;15.43;;;14.33;;
1837;SDS011;918;50.796;6.772;2023-06-10T03:22:50;13.93;;;13.03;;
1837;SDS011;918;50.796;6.772;2023-06-10T03:25:16;13.73;;;12.83;;
1837;SDS011;918;50.796;6.772;2023-06-10T03:27:42;13.53;;;12.37;;
1837;SDS011;918;50.796;6.772;2023-06-10T03:30:07;14.77;;;13.67;;
1837;SDS011;918;50.796;6.772;2023-06-10T03:32:33;14.23;;;13.23;;
1837;SDS011;918;50.796;6.772;2023-06-10T03:34:59;14.73;;;13.37;;
1837;SDS011;918;50.796;6.772;2023-06-10T03:37:24;15.37;;;13.80;;
1837;SDS011;918;50.796;6.772;2023-06-10T03:39:50;13.77;;;12.93;;
1837;SDS011;918;50.796;6.772;2023-06-10T03:42:15;14.40;;;13.30;;
1837;SDS011;918;50.796;6.772;2023-06-10T03:44:41;14.30;;;13.27;;
1837;SDS011;918;50.796;6.772;2023-06-10T03:47:06;13.47;;;12.50;;
1837;SDS011;918;50.796;6.772;2023-06-10T03:49:31;13.10;;;12.00;;
1837;SDS011;918;50.796;6.772;2023-06-10T03:51:58;14.80;;;13.70;;
1837;SDS011;918;50.796;6.772;2023-06-10T03:54:24;13.90;;;13.03;;
1837;SDS011;918;50.796;6.772;2023-06-10T03:56:49;14.30;;;13.00;;
1837;SDS011;918;50.796;6.772;2023-06-10T03:59:15;14.57;;;13.27;;
1837;SDS011;918;50.796;6.772;2023-06-10T04:01:40;15.13;;;14.03;;
1837;SDS011;918;50.796;6.772;2023-06-10T04:04:06;14.93;;;13.73;;
1837;SDS011;918;50.796;6.772;2023-06-10T04:06:31;15.43;;;14.20;;
1837;SDS011;918;50.796;6.772;2023-06-10T04:08:57;15.87;;;14.30;;
1837;SDS011;918;50.796;6.772;2023-06-10T04:11:23;15.50;;;14.30;;
1837;SDS011;918;50.796;6.772;2023-06-10T04:13:49;15.23;;;13.93;;
1837;SDS011;918;50.796;6.772;2023-06-10T04:16:14;16.30;;;14.80;;
1837;SDS011;918;50.796;6.772;2023-06-10T04:18:40;14.43;;;13.30;;
1837;SDS011;918;50.796;6.772;2023-06-10T04:21:06;14.80;;;13.77;;
1837;SDS011;918;50.796;6.772;2023-06-10T04:23:32;20.17;;;16.50;;
1837;SDS011;918;50.796;6.772;2023-06-10T04:25:57;17.97;;;16.37;;
1837;SDS011;918;50.796;6.772;2023-06-10T04:28:24;20.47;;;15.80;;
1837;SDS011;918;50.796;6.772;2023-06-10T04:30:49;24.50;;;17.20;;
1837;SDS011;918;50.796;6.772;2023-06-10T04:33:15;19.23;;;16.27;;
1837;SDS011;918;50.796;6.772;2023-06-10T04:35:40;18.27;;;16.57;;
1837;SDS011;918;50.796;6.772;2023-06-10T04:38:05;14.73;;;13.83;;
1837;SDS011;918;50.796;6.772;2023-06-10T04:40:30;13.37;;;12.37;;
1837;SDS011;918;50.796;6.772;2023-06-10T04:42:56;15.37;;;14.17;;
1837;SDS011;918;50.796;6.772;2023-06-10T04:45:21;14.77;;;13.57;;
1837;SDS011;918;50.796;6.772;2023-06-10T04:47:46;14.27;;;13.47;;
1837;SDS011;918;50.796;6.772;2023-06-10T04:50:12;14.83;;;13.83;;
1837;SDS011;918;50.796;6.772;2023-06-10T04:52:37;14.43;;;13.33;;
1837;SDS011;918;50.796;6.772;2023-06-10T04:55:02;14.87;;;13.87;;
1837;SDS011;918;50.796;6.772;2023-06-10T04:57:28;14.20;;;13.17;;
1837;SDS011;918;50.796;6.772;2023-06-10T04:59:53;13.53;;;12.73;;
1837;SDS011;918;50.796;6.772;2023-06-10T05:02:18;14.17;;;13.03;;
1837;SDS011;918;50.796;6.772;2023-06-10T05:04:43;13.40;;;12.47;;
1837;SDS011;918;50.796;6.772;2023-06-10T05:07:09;13.10;;;12.20;;
1837;SDS011;918;50.796;6.772;2023-06-10T05:09:34;13.80;;;12.90;;
1837;SDS011;918;50.796;6.772;2023-06-10T05:11:59;14.40;;;13.30;;
1837;SDS011;918;50.796;6.772;2023-06-10T05:14:25;13.70;;;12.60;;
1837;SDS011;918;50.796;6.772;2023-06-10T05:16:50;12.87;;;12.07;;
1837;SDS011;918;50.796;6.772;2023-06-10T05:19:15;12.13;;;11.43;;
1837;SDS011;918;50.796;6.772;2023-06-10T05:21:44;13.07;;;12.17;;
1837;SDS011;918;50.796;6.772;2023-06-10T05:24:09;13.17;;;12.37;;
1837;SDS011;918;50.796;6.772;2023-06-10T05:26:35;12.77;;;11.97;;
1837;SDS011;918;50.796;6.772;2023-06-10T05:29:02;12.87;;;11.97;;
1837;SDS011;918;50.796;6.772;2023-06-10T05:31:28;11.27;;;10.57;;
1837;SDS011;918;50.796;6.772;2023-06-10T05:33:54;12.90;;;12.10;;
1837;SDS011;918;50.796;6.772;2023-06-10T05:36:19;11.10;;;10.50;;
1837;SDS011;918;50.796;6.772;2023-06-10T05:38:44;11.63;;;10.90;;
1837;SDS011;918;50.796;6.772;2023-06-10T05:41:10;12.13;;;11.20;;
1837;SDS011;918;50.796;6.772;2023-06-10T05:43:35;11.53;;;10.80;;
1837;SDS011;918;50.796;6.772;2023-06-10T05:46:00;10.70;;;10.00;;
1837;SDS011;918;50.796;6.772;2023-06-10T05:48:25;11.23;;;10.47;;
1837;SDS011;918;50.796;6.772;2023-06-10T05:50:51;11.17;;;10.07;;
1837;SDS011;918;50.796;6.772;2023-06-10T05:53:16;12.47;;;11.40;;
1837;SDS011;918;50.796;6.772;2023-06-10T05:55:45;10.90;;;10.30;;
1837;SDS011;918;50.796;6.772;2023-06-10T05:58:10;10.13;;;9.53;;
1837;SDS011;918;50.796;6.772;2023-06-10T06:00:37;10.80;;;9.90;;
1837;SDS011;918;50.796;6.772;2023-06-10T06:03:03;10.33;;;9.63;;
1837;SDS011;918;50.796;6.772;2023-06-10T06:05:28;10.43;;;9.73;;
1837;SDS011;918;50.796;6.772;2023-06-10T06:07:59;11.27;;;10.57;;
1837;SDS011;918;50.796;6.772;2023-06-10T06:10:25;10.33;;;9.83;;
1837;SDS011;918;50.796;6.772;2023-06-10T06:12:50;10.00;;;9.40;;
1837;SDS011;918;50.796;6.772;2023-06-10T06:15:15;10.13;;;9.53;;
1837;SDS011;918;50.796;6.772;2023-06-10T06:17:40;9.30;;;8.77;;
1837;SDS011;918;50.796;6.772;2023-06-10T06:20:06;9.27;;;8.67;;
1837;SDS011;918;50.796;6.772;2023-06-10T06:22:31;10.20;;;9.40;;
1837;SDS011;918;50.796;6.772;2023-06-10T06:24:59;10.43;;;9.73;;
1837;SDS011;918;50.796;6.772;2023-06-10T06:27:24;9.63;;;9.03;;
1837;SDS011;918;50.796;6.772;2023-06-10T06:29:49;9.33;;;8.63;;
1837;SDS011;918;50.796;6.772;2023-06-10T06:32:15;9.43;;;8.73;;
1837;SDS011;918;50.796;6.772;2023-06-10T06:34:41;11.23;;;8.40;;
1837;SDS011;918;50.796;6.772;2023-06-10T06:37:06;8.77;;;8.27;;
1837;SDS011;918;50.796;6.772;2023-06-10T06:39:31;8.00;;;7.40;;
1837;SDS011;918;50.796;6.772;2023-06-10T06:41:56;7.70;;;7.27;;
1837;SDS011;918;50.796;6.772;2023-06-10T06:44:21;6.67;;;6.27;;
1837;SDS011;918;50.796;6.772;2023-06-10T06:46:47;7.17;;;6.70;;
1837;SDS011;918;50.796;6.772;2023-06-10T06:49:12;6.83;;;6.40;;
1837;SDS011;918;50.796;6.772;2023-06-10T06:51:37;6.23;;;5.83;;
1837;SDS011;918;50.796;6.772;2023-06-10T06:54:02;7.20;;;6.80;;
1837;SDS011;918;50.796;6.772;2023-06-10T06:56:28;6.03;;;5.67;;
1837;SDS011;918;50.796;6.772;2023-06-10T06:58:53;6.57;;;6.17;;
1837;SDS011;918;50.796;6.772;2023-06-10T07:01:18;6.17;;;5.77;;
1837;SDS011;918;50.796;6.772;2023-06-10T07:03:44;6.30;;;5.90;;
1837;SDS011;918;50.796;6.772;2023-06-10T07:06:09;5.93;;;5.53;;
1837;SDS011;918;50.796;6.772;2023-06-10T07:08:34;5.83;;;5.50;;
1837;SDS011;918;50.796;6.772;2023-06-10T07:11:00;6.60;;;6.10;;
1837;SDS011;918;50.796;6.772;2023-06-10T07:13:25;6.63;;;6.13;;
1837;SDS011;918;50.796;6.772;2023-06-10T07:15:50;6.40;;;6.00;;
1837;SDS011;918;50.796;6.772;2023-06-10T07:18:15;6.10;;;5.70;;
1837;SDS011;918;50.796;6.772;2023-06-10T07:20:43;6.23;;;5.90;;
1837;SDS011;918;50.796;6.772;2023-06-10T07:23:09;6.60;;;6.20;;
1837;SDS011;918;50.796;6.772;2023-06-10T07:25:34;6.90;;;6.27;;
1837;SDS011;918;50.796;6.772;2023-06-10T07:27:59;6.47;;;5.93;;
1837;SDS011;918;50.796;6.772;2023-06-10T07:30:24;5.53;;;5.10;;
1837;SDS011;918;50.796;6.772;2023-06-10T07:32:50;6.13;;;5.73;;
1837;SDS011;918;50.796;6.772;2023-06-10T07:35:16;5.50;;;5.10;;
1837;SDS011;918;50.796;6.772;2023-06-10T07:37:42;5.80;;;5.50;;
1837;SDS011;918;50.796;6.772;2023-06-10T07:40:07;5.80;;;5.50;;
1837;SDS011;918;50.796;6.772;2023-06-10T07:42:34;6.23;;;5.93;;
1837;SDS011;918;50.796;6.772;2023-06-10T07:45:00;6.10;;;5.70;;
1837;SDS011;918;50.796;6.772;2023-06-10T07:47:25;6.07;;;5.77;;
1837;SDS011;918;50.796;6.772;2023-06-10T07:49:50;6.00;;;5.60;;
1837;SDS011;918;50.796;6.772;2023-06-10T07:52:15;6.20;;;5.80;;
1837;SDS011;918;50.796;6.772;2023-06-10T07:54:40;5.63;;;5.33;;
1837;SDS011;918;50.796;6.772;2023-06-10T07:57:06;6.40;;;6.00;;
1837;SDS011;918;50.796;6.772;2023-06-10T07:59:32;6.30;;;5.80;;
1837;SDS011;918;50.796;6.772;2023-06-10T08:01:57;6.03;;;5.67;;
1837;SDS011;918;50.796;6.772;2023-06-10T08:04:23;5.60;;;5.20;;
1837;SDS011;918;50.796;6.772;2023-06-10T08:06:48;5.63;;;5.17;;
1837;SDS011;918;50.796;6.772;2023-06-10T08:09:13;5.83;;;5.47;;
1837;SDS011;918;50.796;6.772;2023-06-10T08:11:38;6.00;;;5.70;;
1837;SDS011;918;50.796;6.772;2023-06-10T08:14:04;6.33;;;5.93;;
1837;SDS011;918;50.796;6.772;2023-06-10T08:16:29;7.33;;;6.73;;
1837;SDS011;918;50.796;6.772;2023-06-10T08:18:54;6.27;;;5.80;;
1837;SDS011;918;50.796;6.772;2023-06-10T08:21:19;5.70;;;5.30;;
1837;SDS011;918;50.796;6.772;2023-06-10T08:23:46;5.50;;;5.20;;
1837;SDS011;918;50.796;6.772;2023-06-10T08:26:11;5.93;;;5.63;;
1837;SDS011;918;50.796;6.772;2023-06-10T08:28:36;6.10;;;5.50;;
1837;SDS011;918;50.796;6.772;2023-06-10T08:31:02;7.53;;;7.13;;
1837;SDS011;918;50.796;6.772;2023-06-10T08:33:27;6.47;;;6.07;;
1837;SDS011;918;50.796;6.772;2023-06-10T08:35:52;6.67;;;6.20;;
1837;SDS011;918;50.796;6.772;2023-06-10T08:38:18;6.23;;;5.93;;
1837;SDS011;918;50.796;6.772;2023-06-10T08:40:43;6.40;;;5.90;;
1837;SDS011;918;50.796;6.772;2023-06-10T08:43:22;7.07;;;6.37;;
1837;SDS011;918;50.796;6.772;2023-06-10T08:45:55;6.60;;;6.10;;
1837;SDS011;918;50.796;6.772;2023-06-10T08:48:25;7.00;;;6.30;;
1837;SDS011;918;50.796;6.772;2023-06-10T08:50:53;6.20;;;5.80;;
1837;SDS011;918;50.796;6.772;2023-06-10T08:53:19;6.30;;;5.80;;
1837;SDS011;918;50.796;6.772;2023-06-10T08:55:46;6.37;;;5.97;;
1837;SDS011;918;50.796;6.772;2023-06-10T08:58:14;6.43;;;6.03;;
1837;SDS011;918;50.796;6.772;2023-06-10T09:00:39;6.07;;;5.77;;
1837;SDS011;918;50.796;6.772;2023-06-10T09:03:05;6.13;;;5.63;;
1837;SDS011;918;50.796;6.772;2023-06-10T09:05:34;6.10;;;5.70;;
1837;SDS011;918;50.796;6.772;2023-06-10T09:08:01;7.30;;;6.80;;
1837;SDS011;918;50.796;6.772;2023-06-10T09:10:26;6.63;;;6.13;;
1837;SDS011;918;50.796;6.772;2023-06-10T09:12:52;6.63;;;6.20;;
1837;SDS011;918;50.796;6.772;2023-06-10T09:15:17;6.33;;;5.93;;
1837;SDS011;918;50.796;6.772;2023-06-10T09:17:43;6.40;;;5.90;;
1837;SDS011;918;50.796;6.772;2023-06-10T09:20:09;6.40;;;5.90;;
1837;SDS011;918;50.796;6.772;2023-06-10T09:22:35;6.50;;;5.93;;
1837;SDS011;918;50.796;6.772;2023-06-10T09:27:30;6.60;;;6.20;;
1837;SDS011;918;50.796;6.772;2023-06-10T09:29:59;6.87;;;6.47;;
1837;SDS011;918;50.796;6.772;2023-06-10T09:32:24;6.40;;;6.00;;
1837;SDS011;918;50.796;6.772;2023-06-10T09:34:50;6.50;;;6.10;;
1837;SDS011;918;50.796;6.772;2023-06-10T09:37:22;5.57;;;5.27;;
1837;SDS011;918;50.796;6.772;2023-06-10T09:40:04;6.97;;;6.47;;
1837;SDS011;918;50.796;6.772;2023-06-10T09:42:33;6.50;;;6.00;;
1837;SDS011;918;50.796;6.772;2023-06-10T09:45:03;5.77;;;5.40;;
1837;SDS011;918;50.796;6.772;2023-06-10T09:47:28;7.13;;;6.63;;
1837;SDS011;918;50.796;6.772;2023-06-10T09:49:54;6.90;;;6.50;;
1837;SDS011;918;50.796;6.772;2023-06-10T09:52:26;6.60;;;6.20;;
1837;SDS011;918;50.796;6.772;2023-06-10T09:54:53;6.30;;;5.90;;
1837;SDS011;918;50.796;6.772;2023-06-10T09:57:19;6.80;;;6.30;;
1837;SDS011;918;50.796;6.772;2023-06-10T09:59:45;6.57;;;6.17;;
1837;SDS011;918;50.796;6.772;2023-06-10T10:02:14;7.50;;;6.80;;
1837;SDS011;918;50.796;6.772;2023-06-10T10:04:40;7.03;;;6.50;;
1837;SDS011;918;50.796;6.772;2023-06-10T10:07:06;6.80;;;6.13;;
1837;SDS011;918;50.796;6.772;2023-06-10T10:09:32;6.90;;;6.20;;
1837;SDS011;918;50.796;6.772;2023-06-10T10:11:58;6.60;;;6.20;;
1837;SDS011;918;50.796;6.772;2023-06-10T10:14:25;6.40;;;6.00;;
1837;SDS011;918;50.796;6.772;2023-06-10T10:16:52;7.37;;;6.87;;
1837;SDS011;918;50.796;6.772;2023-06-10T10:19:26;6.53;;;6.10;;
1837;SDS011;918;50.796;6.772;2023-06-10T10:21:53;6.87;;;6.30;;
1837;SDS011;918;50.796;6.772;2023-06-10T10:24:34;6.90;;;6.50;;
1837;SDS011;918;50.796;6.772;2023-06-10T10:27:02;7.60;;;7.10;;
1837;SDS011;918;50.796;6.772;2023-06-10T10:29:38;11.30;;;7.20;;
1837;SDS011;918;50.796;6.772;2023-06-10T10:32:04;7.10;;;6.70;;
1837;SDS011;918;50.796;6.772;2023-06-10T10:34:35;6.83;;;6.43;;
1837;SDS011;918;50.796;6.772;2023-06-10T10:37:08;7.27;;;6.77;;
1837;SDS011;918;50.796;6.772;2023-06-10T10:39:33;7.20;;;6.80;;
1837;SDS011;918;50.796;6.772;2023-06-10T10:41:59;6.70;;;6.27;;
1837;SDS011;918;50.796;6.772;2023-06-10T10:44:25;7.07;;;6.63;;
1837;SDS011;918;50.796;6.772;2023-06-10T10:46:50;7.50;;;6.93;;
1837;SDS011;918;50.796;6.772;2023-06-10T10:49:16;6.83;;;6.33;;
1837;SDS011;918;50.796;6.772;2023-06-10T10:51:55;7.10;;;6.63;;
1837;SDS011;918;50.796;6.772;2023-06-10T10:54:27;7.80;;;7.10;;
1837;SDS011;918;50.796;6.772;2023-06-10T11:05:12;7.47;;;6.87;;
1837;SDS011;918;50.796;6.772;2023-06-10T11:07:39;6.50;;;5.90;;
1837;SDS011;918;50.796;6.772;2023-06-10T11:10:11;6.67;;;6.17;;
1837;SDS011;918;50.796;6.772;2023-06-10T11:15:07;7.20;;;6.63;;
1837;SDS011;918;50.796;6.772;2023-06-10T11:17:32;7.80;;;7.30;;
1837;SDS011;918;50.796;6.772;2023-06-10T11:20:00;7.73;;;7.23;;
1837;SDS011;918;50.796;6.772;2023-06-10T11:22:26;6.90;;;6.50;;
1837;SDS011;918;50.796;6.772;2023-06-10T11:24:51;7.60;;;7.10;;
1837;SDS011;918;50.796;6.772;2023-06-10T11:29:58;6.77;;;6.27;;
1837;SDS011;918;50.796;6.772;2023-06-10T11:32:43;7.47;;;6.73;;
1837;SDS011;918;50.796;6.772;2023-06-10T11:35:09;6.37;;;5.93;;
1837;SDS011;918;50.796;6.772;2023-06-10T11:37:34;6.50;;;6.10;;
1837;SDS011;918;50.796;6.772;2023-06-10T11:40:00;6.67;;;6.07;;
1837;SDS011;918;50.796;6.772;2023-06-10T11:42:25;7.20;;;6.63;;
1837;SDS011;918;50.796;6.772;2023-06-10T11:44:51;6.83;;;6.43;;
1837;SDS011;918;50.796;6.772;2023-06-10T11:47:17;6.33;;;5.80;;
1837;SDS011;918;50.796;6.772;2023-06-10T11:49:43;6.77;;;6.27;;
1837;SDS011;918;50.796;6.772;2023-06-10T11:52:08;7.07;;;6.67;;
1837;SDS011;918;50.796;6.772;2023-06-10T11:54:34;6.90;;;6.40;;
1837;SDS011;918;50.796;6.772;2023-06-10T11:56:59;6.63;;;6.23;;
1837;SDS011;918;50.796;6.772;2023-06-10T11:59:33;7.00;;;6.50;;
1837;SDS011;918;50.796;6.772;2023-06-10T12:01:58;6.90;;;6.27;;
1837;SDS011;918;50.796;6.772;2023-06-10T12:04:23;6.50;;;6.10;;
1837;SDS011;918;50.796;6.772;2023-06-10T12:06:51;6.77;;;6.20;;
1837;SDS011;918;50.796;6.772;2023-06-10T12:09:27;7.07;;;6.57;;
1837;SDS011;918;50.796;6.772;2023-06-10T12:11:55;6.87;;;6.47;;
1837;SDS011;918;50.796;6.772;2023-06-10T12:17:22;6.20;;;5.80;;
1837;SDS011;918;50.796;6.772;2023-06-10T12:19:57;6.60;;;6.20;;
1837;SDS011;918;50.796;6.772;2023-06-10T12:22:23;6.60;;;6.20;;
1837;SDS011;918;50.796;6.772;2023-06-10T12:25:02;6.70;;;6.20;;
1837;SDS011;918;50.796;6.772;2023-06-10T12:27:30;6.40;;;6.10;;
1837;SDS011;918;50.796;6.772;2023-06-10T12:29:56;5.90;;;5.60;;
1837;SDS011;918;50.796;6.772;2023-06-10T12:35:04;6.30;;;5.80;;
1837;SDS011;918;50.796;6.772;2023-06-10T12:37:30;6.87;;;6.57;;
1837;SDS011;918;50.796;6.772;2023-06-10T12:39:58;6.17;;;5.77;;
1837;SDS011;918;50.796;6.772;2023-06-10T12:42:28;6.17;;;5.77;;
1837;SDS011;918;50.796;6.772;2023-06-10T12:44:55;5.90;;;5.60;;
1837;SDS011;918;50.796;6.772;2023-06-10T12:47:28;5.60;;;5.30;;
1837;SDS011;918;50.796;6.772;2023-06-10T12:49:54;6.83;;;5.70;;
1837;SDS011;918;50.796;6.772;2023-06-10T12:52:19;5.83;;;5.53;;
1837;SDS011;918;50.796;6.772;2023-06-10T12:54:45;6.13;;;5.73;;
1837;SDS011;918;50.796;6.772;2023-06-10T12:57:10;5.60;;;5.23;;
1837;SDS011;918;50.796;6.772;2023-06-10T12:59:35;6.47;;;6.07;;
1837;SDS011;918;50.796;6.772;2023-06-10T13:02:01;5.73;;;5.43;;
1837;SDS011;918;50.796;6.772;2023-06-10T13:04:26;5.83;;;5.43;;
1837;SDS011;918;50.796;6.772;2023-06-10T13:06:52;6.17;;;5.77;;
1837;SDS011;918;50.796;6.772;2023-06-10T13:09:17;6.03;;;5.63;;
1837;SDS011;918;50.796;6.772;2023-06-10T13:11:42;7.10;;;5.80;;
1837;SDS011;918;50.796;6.772;2023-06-10T13:14:08;5.67;;;5.10;;
1837;SDS011;918;50.796;6.772;2023-06-10T13:16:33;5.50;;;5.10;;
1837;SDS011;918;50.796;6.772;2023-06-10T13:18:59;6.13;;;5.83;;
1837;SDS011;918;50.796;6.772;2023-06-10T13:21:25;6.30;;;5.90;;
1837;SDS011;918;50.796;6.772;2023-06-10T13:23:50;5.60;;;5.07;;
1837;SDS011;918;50.796;6.772;2023-06-10T13:26:16;4.93;;;4.60;;
1837;SDS011;918;50.796;6.772;2023-06-10T13:28:44;5.43;;;5.00;;
1837;SDS011;918;50.796;6.772;2023-06-10T13:31:10;5.40;;;5.10;;
1837;SDS011;918;50.796;6.772;2023-06-10T13:33:35;6.60;;;6.00;;
1837;SDS011;918;50.796;6.772;2023-06-10T13:36:01;5.33;;;4.93;;
1837;SDS011;918;50.796;6.772;2023-06-10T13:38:26;5.43;;;4.90;;
1837;SDS011;918;50.796;6.772;2023-06-10T13:40:51;5.40;;;5.10;;
1837;SDS011;918;50.796;6.772;2023-06-10T13:43:16;5.23;;;4.83;;
1837;SDS011;918;50.796;6.772;2023-06-10T13:45:42;5.90;;;5.40;;
1837;SDS011;918;50.796;6.772;2023-06-10T13:48:07;6.13;;;5.73;;
1837;SDS011;918;50.796;6.772;2023-06-10T13:50:33;5.53;;;5.13;;
1837;SDS011;918;50.796;6.772;2023-06-10T13:52:58;6.27;;;5.33;;
1837;SDS011;918;50.796;6.772;2023-06-10T13:55:24;5.90;;;5.50;;
1837;SDS011;918;50.796;6.772;2023-06-10T13:57:49;5.20;;;4.90;;
1837;SDS011;918;50.796;6.772;2023-06-10T14:00:15;5.57;;;5.27;;
1837;SDS011;918;50.796;6.772;2023-06-10T14:02:40;6.07;;;5.53;;
1837;SDS011;918;50.796;6.772;2023-06-10T14:05:06;9.57;;;6.00;;
1837;SDS011;918;50.796;6.772;2023-06-10T14:07:33;6.00;;;5.50;;
1837;SDS011;918;50.796;6.772;2023-06-10T14:09:58;5.07;;;4.77;;
1837;SDS011;918;50.796;6.772;2023-06-10T14:12:23;5.60;;;5.17;;
1837;SDS011;918;50.796;6.772;2023-06-10T14:14:49;5.30;;;4.90;;
1837;SDS011;918;50.796;6.772;2023-06-10T14:17:14;5.10;;;4.80;;
1837;SDS011;918;50.796;6.772;2023-06-10T14:19:40;4.70;;;4.40;;
1837;SDS011;918;50.796;6.772;2023-06-10T14:22:05;5.33;;;4.83;;
1837;SDS011;918;50.796;6.772;2023-06-10T14:24:32;4.93;;;4.63;;
1837;SDS011;918;50.796;6.772;2023-06-10T14:26:57;5.43;;;5.13;;
1837;SDS011;918;50.796;6.772;2023-06-10T14:29:23;5.27;;;5.07;;
1837;SDS011;918;50.796;6.772;2023-06-10T14:31:48;5.17;;;4.80;;
1837;SDS011;918;50.796;6.772;2023-06-10T14:34:13;5.80;;;5.27;;
1837;SDS011;918;50.796;6.772;2023-06-10T14:36:39;4.77;;;4.57;;
1837;SDS011;918;50.796;6.772;2023-06-10T14:39:04;4.17;;;3.90;;
1837;SDS011;918;50.796;6.772;2023-06-10T14:41:30;4.47;;;4.23;;
1837;SDS011;918;50.796;6.772;2023-06-10T14:43:56;5.60;;;5.10;;
1837;SDS011;918;50.796;6.772;2023-06-10T14:46:21;4.20;;;4.00;;
1837;SDS011;918;50.796;6.772;2023-06-10T14:48:46;5.40;;;5.00;;
1837;SDS011;918;50.796;6.772;2023-06-10T14:51:12;4.93;;;4.57;;
1837;SDS011;918;50.796;6.772;2023-06-10T14:53:37;4.97;;;4.57;;
1837;SDS011;918;50.796;6.772;2023-06-10T14:56:02;5.53;;;4.90;;
1837;SDS011;918;50.796;6.772;2023-06-10T14:58:28;5.10;;;4.80;;
1837;SDS011;918;50.796;6.772;2023-06-10T15:00:53;5.00;;;4.70;;
1837;SDS011;918;50.796;6.772;2023-06-10T15:03:18;4.60;;;4.30;;
1837;SDS011;918;50.796;6.772;2023-06-10T15:05:43;4.83;;;4.53;;
1837;SDS011;918;50.796;6.772;2023-06-10T15:08:09;6.20;;;5.60;;
1837;SDS011;918;50.796;6.772;2023-06-10T15:10:34;5.77;;;5.27;;
1837;SDS011;918;50.796;6.772;2023-06-10T15:12:59;6.40;;;6.00;;
1837;SDS011;918;50.796;6.772;2023-06-10T15:15:25;5.40;;;5.00;;
1837;SDS011;918;50.796;6.772;2023-06-10T15:17:50;5.50;;;5.00;;
1837;SDS011;918;50.796;6.772;2023-06-10T15:20:16;4.50;;;4.20;;
1837;SDS011;918;50.796;6.772;2023-06-10T15:22:41;5.20;;;4.90;;
1837;SDS011;918;50.796;6.772;2023-06-10T15:25:07;5.10;;;4.80;;
1837;SDS011;918;50.796;6.772;2023-06-10T15:27:32;5.47;;;5.07;;
1837;SDS011;918;50.796;6.772;2023-06-10T15:29:57;6.17;;;5.77;;
1837;SDS011;918;50.796;6.772;2023-06-10T15:32:23;5.03;;;4.73;;
1837;SDS011;918;50.796;6.772;2023-06-10T15:34:48;5.90;;;5.50;;
1837;SDS011;918;50.796;6.772;2023-06-10T15:37:14;5.27;;;4.87;;
1837;SDS011;918;50.796;6.772;2023-06-10T15:39:39;4.70;;;4.40;;